M\v Black Rhino — V7TR7 — position and weather

sailwx.info

Track history (hours):
 
Tides and Currents Weather Stations Pressure Air Temp Water Temp Dewpoint Dewpoint Depression Visibility Wind Speed Wind Dir Waves Ship Positions

M\v Black Rhino

Last reported at 2015-Mar-25 21:06 UTC. Time now 2015-Mar-26 19:12 UTC.
Position S 27°47' E 032°45'.

Length 100 m; draft 5.7 m.

Type: Cargo ship. MMSI: 538090408.

Date/timePositionNaut miles runAvg speedWind from/ knotsBaromVisibWave heightAir tempDewpointWater temp
2015-Mar-25 21:06S 27°47' E 032°45'8 8.9
2015-Mar-25 20:10S 27°55' E 032°43'9 8.5
2015-Mar-25 19:06S 28°04' E 032°40'50 8.8
2015-Mar-25 13:24S 28°50' E 032°19'1011.3
2015-Mar-25 12:29S 28°57' E 032°10'1011.2
2015-Mar-25 11:33S 29°04' E 032°02'1211.6
2015-Mar-25 10:33S 29°12' E 031°52'1211.9
2015-Mar-25 09:33S 29°20' E 031°42'1211.8
2015-Mar-25 08:33S 29°28' E 031°32'1211.9
2015-Mar-25 07:33S 29°36' E 031°22'1211.9
2015-Mar-25 06:33S 29°45' E 031°13'12 5.8
2015-Mar-25 04:33S 29°52' E 031°03'0 0.0
2015-Mar-25 03:33S 29°52' E 031°03'0 0.0
2015-Mar-25 02:33S 29°52' E 031°03'0 0.0
2015-Mar-24 22:33S 29°52' E 031°03'0 0.0
2015-Mar-24 21:33S 29°52' E 031°03'0 0.0
2015-Mar-24 20:33S 29°52' E 031°03'0 0.0
2015-Mar-24 19:33S 29°52' E 031°03'0 0.0
2015-Mar-24 18:33S 29°52' E 031°03'0 0.0
2015-Mar-24 17:27S 29°52' E 031°03'0 0.0
2015-Mar-24 16:33S 29°52' E 031°03'0 0.0
2015-Mar-24 15:33S 29°52' E 031°03'0 0.0
2015-Mar-24 14:33S 29°52' E 031°03'0 0.0
2015-Mar-24 13:33S 29°52' E 031°03'0 0.0
2015-Mar-24 12:33S 29°52' E 031°03'0 0.0
2015-Mar-24 11:33S 29°52' E 031°03'0 0.0
2015-Mar-24 10:33S 29°52' E 031°03'0 0.0
2015-Mar-24 09:33S 29°52' E 031°03'0 0.0
2015-Mar-24 08:33S 29°52' E 031°03'0 0.0
2015-Mar-24 07:27S 29°52' E 031°03'0 0.0
2015-Mar-24 06:33S 29°52' E 031°03'0 0.0
2015-Mar-24 05:33S 29°52' E 031°03'0 0.0
2015-Mar-24 04:33S 29°52' E 031°03'0 0.0
2015-Mar-24 03:33S 29°52' E 031°03'0 0.0
2015-Mar-23 23:31S 29°52' E 031°03'0 0.0
2015-Mar-23 22:31S 29°52' E 031°03'0 0.0
2015-Mar-23 21:31S 29°52' E 031°03'0 0.0
2015-Mar-23 20:25S 29°52' E 031°03'0 0.0
2015-Mar-23 19:13S 29°52' E 031°03'0 0.0
2015-Mar-23 18:25S 29°52' E 031°03'0 0.0
2015-Mar-23 17:25S 29°52' E 031°03'0 0.0
2015-Mar-23 16:31S 29°52' E 031°03'0 0.0
2015-Mar-23 15:31S 29°52' E 031°03'0 0.0
2015-Mar-23 14:28S 29°52' E 031°03'0 0.0
2015-Mar-23 13:28S 29°52' E 031°03'0 0.0
2015-Mar-23 12:10S 29°52' E 031°03'0 0.0
2015-Mar-23 10:22S 29°52' E 031°03'0 0.0
2015-Mar-23 09:28S 29°52' E 031°03'8 2.4
2015-Mar-23 06:18S 29°47' E 031°09'0 0.2
2015-Mar-23 05:33S 29°47' E 031°09'0 0.4
2015-Mar-23 04:33S 29°47' E 031°09'0 0.4
2015-Mar-23 03:33S 29°47' E 031°09'8 8.1
2015-Mar-23 02:33S 29°42' E 031°16'1312.8
2015-Mar-23 01:33S 29°33' E 031°27'1312.5
2015-Mar-23 00:33S 29°24' E 031°37'1512.2
2015-Mar-22 23:20S 29°14' E 031°50'1012.3
2015-Mar-22 22:32S 29°07' E 031°58'1313.4
2015-Mar-22 21:33S 28°58' E 032°09'  
2015-Mar-17 10:15S 28°06' E 032°40'811.8
2015-Mar-17 09:33S 28°14' E 032°37'3710.7
2015-Mar-17 06:05S 28°48' E 032°21'4211.4
2015-Mar-17 02:26S 29°17' E 031°47'1112.3
2015-Mar-17 01:34S 29°24' E 031°37'1212.1
2015-Mar-17 00:33S 29°32' E 031°27'1212.1
2015-Mar-16 23:33S 29°41' E 031°17'1212.4
2015-Mar-16 22:33S 29°49' E 031°07'5 4.8
2015-Mar-16 21:33S 29°52' E 031°03'0 0.0
2015-Mar-16 20:33S 29°52' E 031°03'0 0.0
2015-Mar-16 19:27S 29°52' E 031°03'0 0.0
2015-Mar-16 18:33S 29°52' E 031°03'0 0.0
2015-Mar-16 17:27S 29°52' E 031°03'0 0.0
2015-Mar-16 16:33S 29°52' E 031°03'0 0.0
2015-Mar-16 15:27S 29°52' E 031°03'0 0.0
2015-Mar-16 14:33S 29°52' E 031°03'0 0.0
2015-Mar-16 13:33S 29°52' E 031°03'0 0.0
2015-Mar-16 12:33S 29°52' E 031°03'0 0.0
2015-Mar-16 11:33S 29°52' E 031°03'0 0.0
2015-Mar-16 10:21S 29°52' E 031°03'0 0.0
2015-Mar-16 09:33S 29°52' E 031°03'0 0.0
2015-Mar-16 08:33S 29°52' E 031°03'0 0.0
2015-Mar-16 07:33S 29°52' E 031°03'0 0.0
2015-Mar-16 06:21S 29°52' E 031°03'0 0.0
2015-Mar-16 05:27S 29°52' E 031°03'0 0.0
2015-Mar-16 04:27S 29°52' E 031°03'0 0.0
2015-Mar-16 03:33S 29°52' E 031°03'0 0.0
2015-Mar-16 02:33S 29°52' E 031°03'0 0.0
2015-Mar-16 01:33S 29°52' E 031°03'0 0.0
2015-Mar-16 00:33S 29°52' E 031°03'0 0.0
2015-Mar-15 23:33S 29°52' E 031°03'0 0.0
2015-Mar-15 22:33S 29°52' E 031°03'0 0.0
2015-Mar-15 21:21S 29°52' E 031°03'  
Track history (hours):
 
Tides and Currents Weather Stations Pressure Air Temp Water Temp Dewpoint Dewpoint Depression Visibility Wind Speed Wind Dir Waves Ship Positions

M\v Black Rhino

Last reported at 2015-Mar-25 21:06 UTC. Time now 2015-Mar-26 19:12 UTC.
Position S 27°47' E 032°45'.

Length 100 m; draft 5.7 m.

Type: Cargo ship. MMSI: 538090408.

Date/timePositionNaut miles runAvg speedWind from/ knotsBaromVisibWave heightAir tempDewpointWater temp
2015-Mar-25 21:06S 27°47' E 032°45'8 8.9
2015-Mar-25 20:10S 27°55' E 032°43'9 8.5
2015-Mar-25 19:06S 28°04' E 032°40'50 8.8
2015-Mar-25 13:24S 28°50' E 032°19'1011.3
2015-Mar-25 12:29S 28°57' E 032°10'1011.2
2015-Mar-25 11:33S 29°04' E 032°02'1211.6
2015-Mar-25 10:33S 29°12' E 031°52'1211.9
2015-Mar-25 09:33S 29°20' E 031°42'1211.8
2015-Mar-25 08:33S 29°28' E 031°32'1211.9
2015-Mar-25 07:33S 29°36' E 031°22'1211.9
2015-Mar-25 06:33S 29°45' E 031°13'12 5.8
2015-Mar-25 04:33S 29°52' E 031°03'0 0.0
2015-Mar-25 03:33S 29°52' E 031°03'0 0.0
2015-Mar-25 02:33S 29°52' E 031°03'0 0.0
2015-Mar-24 22:33S 29°52' E 031°03'0 0.0
2015-Mar-24 21:33S 29°52' E 031°03'0 0.0
2015-Mar-24 20:33S 29°52' E 031°03'0 0.0
2015-Mar-24 19:33S 29°52' E 031°03'0 0.0
2015-Mar-24 18:33S 29°52' E 031°03'0 0.0
2015-Mar-24 17:27S 29°52' E 031°03'0 0.0
2015-Mar-24 16:33S 29°52' E 031°03'0 0.0
2015-Mar-24 15:33S 29°52' E 031°03'0 0.0
2015-Mar-24 14:33S 29°52' E 031°03'0 0.0
2015-Mar-24 13:33S 29°52' E 031°03'0 0.0
2015-Mar-24 12:33S 29°52' E 031°03'0 0.0
2015-Mar-24 11:33S 29°52' E 031°03'0 0.0
2015-Mar-24 10:33S 29°52' E 031°03'0 0.0
2015-Mar-24 09:33S 29°52' E 031°03'0 0.0
2015-Mar-24 08:33S 29°52' E 031°03'0 0.0
2015-Mar-24 07:27S 29°52' E 031°03'0 0.0
2015-Mar-24 06:33S 29°52' E 031°03'0 0.0
2015-Mar-24 05:33S 29°52' E 031°03'0 0.0
2015-Mar-24 04:33S 29°52' E 031°03'0 0.0
2015-Mar-24 03:33S 29°52' E 031°03'0 0.0
2015-Mar-23 23:31S 29°52' E 031°03'0 0.0
2015-Mar-23 22:31S 29°52' E 031°03'0 0.0
2015-Mar-23 21:31S 29°52' E 031°03'0 0.0
2015-Mar-23 20:25S 29°52' E 031°03'0 0.0
2015-Mar-23 19:13S 29°52' E 031°03'0 0.0
2015-Mar-23 18:25S 29°52' E 031°03'0 0.0
2015-Mar-23 17:25S 29°52' E 031°03'0 0.0
2015-Mar-23 16:31S 29°52' E 031°03'0 0.0
2015-Mar-23 15:31S 29°52' E 031°03'0 0.0
2015-Mar-23 14:28S 29°52' E 031°03'0 0.0
2015-Mar-23 13:28S 29°52' E 031°03'0 0.0
2015-Mar-23 12:10S 29°52' E 031°03'0 0.0
2015-Mar-23 10:22S 29°52' E 031°03'0 0.0
2015-Mar-23 09:28S 29°52' E 031°03'8 2.4
2015-Mar-23 06:18S 29°47' E 031°09'0 0.2
2015-Mar-23 05:33S 29°47' E 031°09'0 0.4
2015-Mar-23 04:33S 29°47' E 031°09'0 0.4
2015-Mar-23 03:33S 29°47' E 031°09'8 8.1
2015-Mar-23 02:33S 29°42' E 031°16'1312.8
2015-Mar-23 01:33S 29°33' E 031°27'1312.5
2015-Mar-23 00:33S 29°24' E 031°37'1512.2
2015-Mar-22 23:20S 29°14' E 031°50'1012.3
2015-Mar-22 22:32S 29°07' E 031°58'1313.4
2015-Mar-22 21:33S 28°58' E 032°09'  
2015-Mar-17 10:15S 28°06' E 032°40'811.8
2015-Mar-17 09:33S 28°14' E 032°37'3710.7
2015-Mar-17 06:05S 28°48' E 032°21'4211.4
2015-Mar-17 02:26S 29°17' E 031°47'1112.3
2015-Mar-17 01:34S 29°24' E 031°37'1212.1
2015-Mar-17 00:33S 29°32' E 031°27'1212.1
2015-Mar-16 23:33S 29°41' E 031°17'1212.4
2015-Mar-16 22:33S 29°49' E 031°07'5 4.8
2015-Mar-16 21:33S 29°52' E 031°03'0 0.0
2015-Mar-16 20:33S 29°52' E 031°03'0 0.0
2015-Mar-16 19:27S 29°52' E 031°03'0 0.0
2015-Mar-16 18:33S 29°52' E 031°03'0 0.0
2015-Mar-16 17:27S 29°52' E 031°03'0 0.0
2015-Mar-16 16:33S 29°52' E 031°03'0 0.0
2015-Mar-16 15:27S 29°52' E 031°03'0 0.0
2015-Mar-16 14:33S 29°52' E 031°03'0 0.0
2015-Mar-16 13:33S 29°52' E 031°03'0 0.0
2015-Mar-16 12:33S 29°52' E 031°03'0 0.0
2015-Mar-16 11:33S 29°52' E 031°03'0 0.0
2015-Mar-16 10:21S 29°52' E 031°03'0 0.0
2015-Mar-16 09:33S 29°52' E 031°03'0 0.0
2015-Mar-16 08:33S 29°52' E 031°03'0 0.0
2015-Mar-16 07:33S 29°52' E 031°03'0 0.0
2015-Mar-16 06:21S 29°52' E 031°03'0 0.0
2015-Mar-16 05:27S 29°52' E 031°03'0 0.0
2015-Mar-16 04:27S 29°52' E 031°03'0 0.0
2015-Mar-16 03:33S 29°52' E 031°03'0 0.0
2015-Mar-16 02:33S 29°52' E 031°03'0 0.0
2015-Mar-16 01:33S 29°52' E 031°03'0 0.0
2015-Mar-16 00:33S 29°52' E 031°03'0 0.0
2015-Mar-15 23:33S 29°52' E 031°03'0 0.0
2015-Mar-15 22:33S 29°52' E 031°03'0 0.0
2015-Mar-15 21:21S 29°52' E 031°03'  

Dump ship's entire track history